createdAt,value
2022-07-26T00:02:55.463Z,99043.53
2022-07-26T00:05:57.746Z,99043.31
2022-07-26T00:08:59.486Z,99047.41
2022-07-26T00:12:01.217Z,99051.97
2022-07-26T00:15:03.644Z,99058.91
2022-07-26T00:18:05.783Z,99056.75
2022-07-26T00:21:13.619Z,99060.78
2022-07-26T00:24:15.329Z,99070.16
2022-07-26T00:27:17.043Z,99058.75
2022-07-26T00:30:18.761Z,99061.75
2022-07-26T00:33:20.564Z,99060.03
2022-07-26T00:36:22.342Z,99060.41
2022-07-26T00:39:24.537Z,99074.63
2022-07-26T00:42:26.266Z,99070.38
2022-07-26T00:45:28.015Z,99067.16
2022-07-26T00:48:29.770Z,99059.06
2022-07-26T00:51:31.478Z,99060.88
2022-07-26T00:54:33.395Z,99056.56
2022-07-26T00:57:35.837Z,99055.75
2022-07-26T01:00:37.467Z,99053.59
2022-07-26T01:03:39.772Z,99059.72
2022-07-26T01:06:41.911Z,99051.69
2022-07-26T01:09:43.850Z,99050.91
2022-07-26T01:12:45.922Z,99054.38
2022-07-26T01:15:48.107Z,99063.22
2022-07-26T01:18:51.265Z,99062.69
2022-07-26T01:21:52.993Z,99067.75
2022-07-26T01:24:54.732Z,99065.38
2022-07-26T01:27:56.478Z,99060.03
2022-07-26T01:30:58.202Z,99060.53
2022-07-26T01:34:00.006Z,99059.69
2022-07-26T01:37:01.918Z,99057.03
2022-07-26T01:40:04.741Z,99055.47
2022-07-26T01:43:08.786Z,99062.91
2022-07-26T01:46:10.651Z,99068.75
2022-07-26T01:49:12.439Z,99066.91
2022-07-26T01:52:14.178Z,99061.34
2022-07-26T01:55:15.968Z,99063.22
2022-07-26T01:58:17.618Z,99062.69
2022-07-26T02:01:39.696Z,99071.22
2022-07-26T02:04:59.525Z,99066.91
2022-07-26T02:08:01.222Z,99070.56
2022-07-26T02:11:04.011Z,99077.59
2022-07-26T02:14:06.062Z,99072.25
2022-07-26T02:17:08.247Z,99073.84
2022-07-26T02:20:10.280Z,99071.97
2022-07-26T02:23:12.655Z,99076.50
2022-07-26T02:26:14.327Z,99074.63
2022-07-26T02:29:16.094Z,99072.25
2022-07-26T02:32:17.796Z,99076.84
2022-07-26T02:35:19.634Z,99076.06
2022-07-26T02:41:23.168Z,99081.16
2022-07-26T02:44:25.682Z,99081.25
2022-07-26T02:47:27.265Z,99083.44
2022-07-26T02:50:29.586Z,99089.34
2022-07-26T02:53:31.298Z,99086.41
2022-07-26T02:56:33.135Z,99093.41
2022-07-26T02:59:34.869Z,99093.41
2022-07-26T03:02:36.959Z,99102.78
2022-07-26T03:05:39.103Z,99099.06
2022-07-26T03:08:40.796Z,99101.00
2022-07-26T03:11:42.484Z,99109.81
2022-07-26T03:14:44.173Z,99107.16
2022-07-26T03:17:45.911Z,99108.72
2022-07-26T03:20:48.075Z,99113.81
2022-07-26T03:23:49.858Z,99112.19
2022-07-26T03:26:51.576Z,99118.56
2022-07-26T03:29:53.250Z,99120.69
2022-07-26T03:32:55.116Z,99119.56
2022-07-26T03:35:56.951Z,99117.50
2022-07-26T03:38:59.226Z,99116.50
2022-07-26T03:42:00.907Z,99112.06
2022-07-26T03:45:02.597Z,99125.75
2022-07-26T03:48:04.661Z,99123.28
2022-07-26T03:51:06.482Z,99127.13
2022-07-26T03:54:08.439Z,99128.78
2022-07-26T03:57:10.381Z,99122.66
2022-07-26T04:00:12.586Z,99119.72
2022-07-26T04:03:14.315Z,99123.69
2022-07-26T04:06:16.361Z,99125.00
2022-07-26T04:09:18.169Z,99129.00
2022-07-26T04:12:19.886Z,99133.50
2022-07-26T04:15:21.693Z,99137.72
2022-07-26T04:18:24.805Z,99144.66
2022-07-26T04:21:26.699Z,99146.53
2022-07-26T04:24:28.389Z,99148.16
2022-07-26T04:27:30.425Z,99143.09
2022-07-26T04:30:32.241Z,99145.78
2022-07-26T04:33:34.271Z,99149.53
2022-07-26T04:36:36.049Z,99151.38
2022-07-26T04:39:37.713Z,99151.66
2022-07-26T04:42:39.404Z,99154.63
2022-07-26T04:45:41.099Z,99159.72
2022-07-26T04:48:42.806Z,99154.13
2022-07-26T04:51:44.538Z,99158.66
2022-07-26T04:54:46.204Z,99173.09
2022-07-26T04:57:48.450Z,99171.25
2022-07-26T05:04:11.920Z,99172.09
2022-07-26T05:07:13.657Z,99163.81
2022-07-26T05:10:16.366Z,99168.59
2022-07-26T05:13:18.161Z,99171.56
2022-07-26T05:16:31.506Z,99176.63
2022-07-26T05:19:33.563Z,99176.63
2022-07-26T05:22:36.200Z,99176.88
2022-07-26T05:25:38.751Z,99180.09
2022-07-26T05:28:40.540Z,99187.34
2022-07-26T05:31:42.647Z,99182.81
2022-07-26T05:34:44.414Z,99186.00
2022-07-26T05:37:46.204Z,99189.47
2022-07-26T05:40:50.756Z,99194.53
2022-07-26T05:43:52.863Z,99201.69
2022-07-26T05:46:54.588Z,99196.06
2022-07-26T05:49:56.434Z,99197.16
2022-07-26T05:52:58.173Z,99204.31
2022-07-26T05:55:59.897Z,99212.09
2022-07-26T05:59:01.659Z,99214.75
2022-07-26T06:02:03.427Z,99212.22
2022-07-26T06:05:05.492Z,99213.59
2022-07-26T06:08:07.223Z,99212.53
2022-07-26T06:11:09.195Z,99212.28
2022-07-26T06:14:11.163Z,99216.25
2022-07-26T06:17:13.202Z,99216.50
2022-07-26T06:20:14.970Z,99220.72
2022-07-26T06:23:16.851Z,99214.50
2022-07-26T06:26:18.594Z,99217.75
2022-07-26T06:29:20.387Z,99223.38
2022-07-26T06:32:23.601Z,99227.09
2022-07-26T06:35:25.507Z,99223.50
2022-07-26T06:38:27.671Z,99221.06
2022-07-26T06:41:29.455Z,99230.38
2022-07-26T06:44:31.175Z,99227.22
2022-07-26T06:47:33.031Z,99229.69
2022-07-26T06:50:34.844Z,99231.25
2022-07-26T06:53:37.053Z,99238.47
2022-07-26T06:56:38.782Z,99242.75
2022-07-26T06:59:40.541Z,99244.56
2022-07-26T07:02:42.248Z,99248.00
2022-07-26T07:05:48.057Z,99243.09
2022-07-26T07:08:51.883Z,99259.72
2022-07-26T07:12:00.259Z,99263.69
2022-07-26T07:15:07.354Z,99261.19
2022-07-26T07:18:09.130Z,99269.75
2022-07-26T07:21:11.008Z,99270.00
2022-07-26T07:24:12.739Z,99276.63
2022-07-26T07:27:14.506Z,99271.28
2022-07-26T07:30:17.681Z,99283.56
2022-07-26T07:33:22.392Z,99283.59
2022-07-26T07:36:24.962Z,99283.31
2022-07-26T07:39:34.461Z,99281.38
2022-07-26T07:42:36.952Z,99279.72
2022-07-26T07:45:38.735Z,99279.13
2022-07-26T07:48:47.491Z,99276.66
2022-07-26T07:51:49.588Z,99287.63
2022-07-26T07:54:51.355Z,99285.22
2022-07-26T07:57:53.171Z,99277.03
2022-07-26T08:00:55.477Z,99288.44
2022-07-26T08:03:57.350Z,99286.75
2022-07-26T08:06:59.253Z,99289.81
2022-07-26T08:10:01.176Z,99290.56
2022-07-26T08:13:02.937Z,99296.03
2022-07-26T08:16:05.033Z,99298.19
2022-07-26T08:19:12.021Z,99297.16
2022-07-26T08:22:13.932Z,99303.97
2022-07-26T08:25:15.665Z,99299.97
2022-07-26T08:28:37.761Z,99309.56
2022-07-26T08:31:39.944Z,99317.06
2022-07-26T08:34:41.735Z,99317.75
2022-07-26T08:37:43.547Z,99313.84
2022-07-26T08:40:45.972Z,99317.06
2022-07-26T08:43:53.179Z,99321.94
2022-07-26T08:46:55.569Z,99321.00
2022-07-26T08:49:57.344Z,99326.81
2022-07-26T08:53:06.564Z,99321.19
2022-07-26T08:56:08.463Z,99323.22
2022-07-26T08:59:21.663Z,99325.97
2022-07-26T09:02:39.719Z,99323.97
2022-07-26T09:05:41.423Z,99336.44
2022-07-26T09:08:45.404Z,99328.31
2022-07-26T09:11:47.088Z,99323.78
2022-07-26T09:14:49.771Z,99333.56
2022-07-26T09:17:54.114Z,99329.50
2022-07-26T09:20:55.960Z,99332.78
2022-07-26T09:23:58.552Z,99327.47
2022-07-26T09:27:02.094Z,99336.25
2022-07-26T09:30:08.390Z,99349.06
2022-07-26T09:33:10.276Z,99335.28
2022-07-26T09:36:12.052Z,99340.53
2022-07-26T09:39:13.803Z,99335.28
2022-07-26T09:42:28.315Z,99346.53
2022-07-26T09:45:33.404Z,99356.81
2022-07-26T09:49:07.098Z,99354.09
2022-07-26T09:51:59.437Z,99361.41
2022-07-26T09:55:05.292Z,99358.41
2022-07-26T09:58:07.512Z,99361.00
2022-07-26T10:01:09.118Z,99360.88
2022-07-26T10:04:11.870Z,99360.56
2022-07-26T10:07:14.059Z,99367.22
2022-07-26T10:10:22.211Z,99368.31
2022-07-26T10:13:27.033Z,99365.81
2022-07-26T10:16:33.235Z,99370.00
2022-07-26T10:19:45.634Z,99370.34
2022-07-26T10:22:50.717Z,99378.59
2022-07-26T10:25:52.781Z,99375.13
2022-07-26T10:28:54.583Z,99373.09
2022-07-26T10:31:56.257Z,99374.38
2022-07-26T10:34:58.096Z,99373.97
2022-07-26T10:38:05.535Z,99376.75
2022-07-26T10:41:07.958Z,99376.16
2022-07-26T10:44:19.371Z,99365.22
2022-07-26T10:47:21.175Z,99369.91
2022-07-26T10:50:33.541Z,99365.88
2022-07-26T10:53:35.342Z,99373.16
2022-07-26T10:56:37.769Z,99363.78
2022-07-26T10:59:55.302Z,99363.09
2022-07-26T11:02:59.736Z,99369.97
2022-07-26T11:06:12.330Z,99365.59
2022-07-26T11:09:14.149Z,99360.56
2022-07-26T11:12:17.188Z,99369.16
2022-07-26T11:15:19.609Z,99356.13
2022-07-26T11:18:25.080Z,99363.09
2022-07-26T11:21:26.816Z,99358.09
2022-07-26T11:24:28.747Z,99364.72
2022-07-26T11:27:31.327Z,99359.00
2022-07-26T11:30:33.122Z,99370.19
2022-07-26T11:33:43.916Z,99366.94
2022-07-26T11:36:46.321Z,99367.22
2022-07-26T11:39:48.009Z,99362.06
2022-07-26T11:42:54.104Z,99358.25
2022-07-26T11:45:55.892Z,99356.09
2022-07-26T11:48:57.721Z,99357.50
2022-07-26T11:52:03.725Z,99361.81
2022-07-26T11:55:06.108Z,99358.97
2022-07-26T11:58:08.303Z,99361.00
2022-07-26T12:01:11.255Z,99367.59
2022-07-26T12:04:26.933Z,99359.47
2022-07-26T12:07:28.709Z,99361.06
2022-07-26T12:10:30.704Z,99358.56
2022-07-26T12:13:39.894Z,99350.47
2022-07-26T12:16:54.183Z,99348.81
2022-07-26T12:19:56.435Z,99355.09
2022-07-26T12:23:06.037Z,99358.41
2022-07-26T12:26:27.864Z,99356.50
2022-07-26T12:29:35.703Z,99349.22
2022-07-26T12:32:39.319Z,99353.03
2022-07-26T12:35:41.021Z,99353.03
2022-07-26T12:38:44.108Z,99345.81
2022-07-26T12:41:50.518Z,99367.34
2022-07-26T12:44:52.360Z,99355.16
2022-07-26T12:47:55.958Z,99364.34
2022-07-26T12:50:58.364Z,99352.97
2022-07-26T12:54:00.119Z,99355.22
2022-07-26T12:57:01.816Z,99359.13
2022-07-26T13:00:05.408Z,99356.75
2022-07-26T13:03:07.312Z,99355.78
2022-07-26T13:06:08.943Z,99366.72
2022-07-26T13:09:10.816Z,99351.88
2022-07-26T13:12:12.819Z,99351.06
2022-07-26T13:15:14.543Z,99355.44
2022-07-26T13:18:16.296Z,99355.28
2022-07-26T13:21:18.180Z,99355.16
2022-07-26T13:24:19.912Z,99348.78
2022-07-26T13:27:23.070Z,99357.44
2022-07-26T13:30:24.867Z,99347.94
2022-07-26T13:33:27.347Z,99348.84
2022-07-26T13:36:29.386Z,99344.16
2022-07-26T13:39:31.810Z,99344.53
2022-07-26T13:42:34.035Z,99350.44
2022-07-26T13:45:35.995Z,99340.75
2022-07-26T13:48:43.957Z,99342.66
2022-07-26T13:52:00.193Z,99338.81
2022-07-26T13:55:01.964Z,99347.81
2022-07-26T13:58:09.497Z,99343.00
2022-07-26T14:01:11.875Z,99350.06
2022-07-26T14:04:14.002Z,99333.06
2022-07-26T14:07:16.169Z,99331.25
2022-07-26T14:10:18.207Z,99329.91
2022-07-26T14:13:19.979Z,99337.47
2022-07-26T14:16:21.836Z,99340.81
2022-07-26T14:19:23.653Z,99341.41
2022-07-26T14:22:25.708Z,99353.25
2022-07-26T14:25:27.861Z,99345.41
2022-07-26T14:28:29.687Z,99344.06
2022-07-26T14:31:32.497Z,99349.69
2022-07-26T14:34:34.298Z,99352.34
2022-07-26T14:37:42.608Z,99350.72
2022-07-26T14:40:47.704Z,99343.97
2022-07-26T14:43:54.282Z,99343.44
2022-07-26T14:46:57.458Z,99345.19
2022-07-26T14:50:04.172Z,99347.72
2022-07-26T14:53:08.480Z,99348.78
2022-07-26T14:56:10.311Z,99352.34
2022-07-26T14:59:12.147Z,99354.75
2022-07-26T15:02:14.018Z,99357.28
2022-07-26T15:05:16.770Z,99360.91
2022-07-26T15:08:18.535Z,99353.81
2022-07-26T15:11:20.351Z,99359.72
2022-07-26T15:14:22.040Z,99360.72
2022-07-26T15:17:23.821Z,99369.75
2022-07-26T15:20:25.947Z,99374.03
2022-07-26T15:23:27.790Z,99370.28
2022-07-26T15:26:29.546Z,99375.91
2022-07-26T15:29:31.714Z,99369.06
2022-07-26T15:32:33.883Z,99365.69
2022-07-26T15:35:37.127Z,99367.75
2022-07-26T15:38:44.738Z,99357.94
2022-07-26T15:41:47.865Z,99358.78
2022-07-26T15:44:50.036Z,99350.16
2022-07-26T15:47:55.876Z,99353.44
2022-07-26T15:50:59.392Z,99358.00
2022-07-26T15:54:02.770Z,99357.50
2022-07-26T15:57:04.569Z,99369.34
2022-07-26T16:00:12.060Z,99365.38
2022-07-26T16:03:14.243Z,99360.38
2022-07-26T16:06:19.794Z,99370.03
2022-07-26T16:09:22.182Z,99365.47
2022-07-26T16:12:24.785Z,99364.84
2022-07-26T16:15:26.620Z,99361.22
2022-07-26T16:18:28.351Z,99370.34
2022-07-26T16:21:30.070Z,99370.78
2022-07-26T16:24:31.884Z,99365.28
2022-07-26T16:27:33.722Z,99370.44
2022-07-26T16:30:36.967Z,99373.81
2022-07-26T16:33:39.162Z,99367.63
2022-07-26T16:36:48.391Z,99367.03
2022-07-26T16:39:50.235Z,99362.38
2022-07-26T16:42:52.136Z,99361.00
2022-07-26T16:45:53.945Z,99363.91
2022-07-26T16:48:55.693Z,99364.69
2022-07-26T16:51:57.905Z,99381.81
2022-07-26T16:55:00.200Z,99376.66
2022-07-26T16:58:02.009Z,99376.03
2022-07-26T17:01:03.761Z,99381.50
2022-07-26T17:04:05.679Z,99374.66
2022-07-26T17:07:24.604Z,99375.59
2022-07-26T17:10:27.034Z,99375.09
2022-07-26T17:13:28.639Z,99379.13
2022-07-26T17:16:30.560Z,99382.63
2022-07-26T17:19:32.344Z,99372.56
2022-07-26T17:22:34.103Z,99372.91
2022-07-26T17:25:35.887Z,99375.88
2022-07-26T17:28:37.588Z,99373.59
2022-07-26T17:31:39.360Z,99374.84
2022-07-26T17:34:41.256Z,99377.34
2022-07-26T17:37:42.899Z,99383.00
2022-07-26T17:40:44.770Z,99385.34
2022-07-26T17:43:49.250Z,99385.00
2022-07-26T17:46:53.763Z,99383.75
2022-07-26T17:49:55.818Z,99391.72
2022-07-26T17:52:58.751Z,99383.03
2022-07-26T17:56:00.562Z,99380.50
2022-07-26T17:59:02.247Z,99386.47
2022-07-26T18:02:04.136Z,99387.75
2022-07-26T18:05:05.911Z,99386.88
2022-07-26T18:08:07.709Z,99385.16
2022-07-26T18:11:09.968Z,99386.44
2022-07-26T18:14:11.824Z,99379.59
2022-07-26T18:17:13.423Z,99378.69
2022-07-26T18:20:15.171Z,99381.75
2022-07-26T18:23:16.843Z,99386.59
2022-07-26T18:26:18.624Z,99381.03
2022-07-26T18:29:20.371Z,99390.09
2022-07-26T18:32:22.682Z,99390.44
2022-07-26T18:35:24.484Z,99395.50
2022-07-26T18:38:26.180Z,99399.47
2022-07-26T18:41:29.271Z,99403.06
2022-07-26T18:44:32.742Z,99406.94
2022-07-26T18:47:34.375Z,99402.19
2022-07-26T18:50:40.058Z,99402.91
2022-07-26T18:53:42.040Z,99402.28
2022-07-26T18:56:43.984Z,99403.84
2022-07-26T18:59:46.026Z,99402.19
2022-07-26T19:02:48.203Z,99402.34
2022-07-26T19:05:50.053Z,99399.81
2022-07-26T19:08:51.674Z,99402.72
2022-07-26T19:11:53.374Z,99408.47
2022-07-26T19:14:55.382Z,99414.41
2022-07-26T19:17:57.821Z,99414.41
2022-07-26T19:20:59.582Z,99415.63
2022-07-26T19:24:01.332Z,99416.81
2022-07-26T19:27:03.165Z,99420.44
2022-07-26T19:30:06.780Z,99426.22
2022-07-26T19:33:08.588Z,99419.81
2022-07-26T19:36:10.815Z,99432.59
2022-07-26T19:39:13.060Z,99430.91
2022-07-26T19:42:15.241Z,99430.56
2022-07-26T19:45:16.863Z,99427.03
2022-07-26T19:48:18.758Z,99434.81
2022-07-26T19:51:20.619Z,99440.50
2022-07-26T19:54:22.930Z,99442.38
2022-07-26T19:57:24.719Z,99443.19
2022-07-26T20:00:28.004Z,99450.31
2022-07-26T20:03:29.714Z,99450.59
2022-07-26T20:06:31.468Z,99446.69
2022-07-26T20:09:33.376Z,99451.16
2022-07-26T20:12:35.208Z,99447.56
2022-07-26T20:15:36.959Z,99447.44
2022-07-26T20:18:38.656Z,99460.94
2022-07-26T20:21:40.999Z,99457.75
2022-07-26T20:24:42.570Z,99454.47
2022-07-26T20:27:47.792Z,99463.81
2022-07-26T20:30:51.652Z,99467.59
2022-07-26T20:33:53.466Z,99464.13
2022-07-26T20:36:55.264Z,99465.13
2022-07-26T20:39:57.009Z,99471.81
2022-07-26T20:42:59.071Z,99476.06
2022-07-26T20:46:00.886Z,99474.09
2022-07-26T20:49:02.778Z,99481.06
2022-07-26T20:52:05.073Z,99477.22
2022-07-26T20:55:07.501Z,99470.75
2022-07-26T20:58:09.101Z,99475.31
2022-07-26T21:01:12.437Z,99476.69
2022-07-26T21:04:14.367Z,99479.56
2022-07-26T21:07:16.241Z,99483.78
2022-07-26T21:10:18.714Z,99485.25
2022-07-26T21:13:22.650Z,99480.53
2022-07-26T21:16:24.435Z,99486.56
2022-07-26T21:19:26.180Z,99491.13
2022-07-26T21:22:27.948Z,99496.78
2022-07-26T21:25:29.762Z,99499.03
2022-07-26T21:28:31.552Z,99500.78
2022-07-26T21:31:33.312Z,99496.13
2022-07-26T21:34:35.087Z,99505.84
2022-07-26T21:37:36.884Z,99505.03
2022-07-26T21:40:38.807Z,99505.03
2022-07-26T21:43:40.796Z,99501.03
2022-07-26T21:46:42.624Z,99499.47
2022-07-26T21:49:44.403Z,99495.75
2022-07-26T21:52:46.175Z,99501.41
2022-07-26T21:55:47.955Z,99511.63
2022-07-26T21:58:49.810Z,99501.56
2022-07-26T22:01:51.564Z,99504.03
2022-07-26T22:04:53.383Z,99513.16
2022-07-26T22:07:55.364Z,99501.94
2022-07-26T22:10:57.754Z,99505.50
2022-07-26T22:13:59.505Z,99502.34
2022-07-26T22:17:01.428Z,99517.22
2022-07-26T22:20:04.221Z,99510.91
2022-07-26T22:23:08.444Z,99509.09
2022-07-26T22:26:10.187Z,99513.69
2022-07-26T22:29:12.328Z,99504.16
2022-07-26T22:32:14.268Z,99508.75
2022-07-26T22:35:16.201Z,99508.28
2022-07-26T22:38:18.003Z,99511.25
2022-07-26T22:41:20.089Z,99507.88
2022-07-26T22:44:21.770Z,99516.25
2022-07-26T22:47:23.794Z,99508.84
2022-07-26T22:50:25.580Z,99507.59
2022-07-26T22:53:27.310Z,99509.75
2022-07-26T22:56:29.050Z,99511.06
2022-07-26T22:59:30.810Z,99508.88
2022-07-26T23:02:32.500Z,99510.97
2022-07-26T23:05:45.369Z,99504.03
2022-07-26T23:08:48.152Z,99501.69
2022-07-26T23:11:49.984Z,99498.50
2022-07-26T23:14:51.847Z,99502.31
2022-07-26T23:17:53.683Z,99499.88
2022-07-26T23:20:55.398Z,99492.41
2022-07-26T23:23:57.116Z,99503.44
2022-07-26T23:26:58.843Z,99501.59
2022-07-26T23:30:00.682Z,99504.84
2022-07-26T23:33:02.400Z,99509.09
2022-07-26T23:36:04.456Z,99506.97
2022-07-26T23:39:06.232Z,99494.47
2022-07-26T23:42:08.099Z,99503.81
2022-07-26T23:45:10.217Z,99501.16
2022-07-26T23:48:11.923Z,99495.09
2022-07-26T23:51:13.642Z,99502.91
2022-07-26T23:54:15.391Z,99505.28
2022-07-26T23:57:17.204Z,99502.38
